createdAt,value
2018-10-11T12:54:13.475Z,1007.08
2018-10-11T13:04:04.818Z,1007.09
2018-10-11T13:05:05.493Z,1007.08
2018-10-11T13:10:03.749Z,1007.06
2018-10-11T13:11:04.354Z,1007.08
2018-10-11T13:12:05.050Z,1007.06
2018-10-11T13:13:13.319Z,1007.02
2018-10-11T13:14:06.391Z,1007.06
2018-10-11T13:15:07.042Z,1007.04
2018-10-11T13:16:07.695Z,1007.02
2018-10-11T13:17:08.369Z,1007.02
2018-10-11T13:18:09.038Z,1007.06
2018-10-11T13:19:09.712Z,1007.08
2018-10-11T13:20:10.378Z,1007.05
2018-10-11T13:21:11.050Z,1007.03
2018-10-11T13:22:11.833Z,1006.99
2018-10-11T13:23:16.915Z,1007.04
2018-10-11T13:24:14.288Z,1007.04
2018-10-11T13:25:15.009Z,1007.08
2018-10-11T13:26:15.732Z,1007.05
2018-10-11T13:27:16.405Z,1007.09
2018-10-11T13:28:17.077Z,1007.08
2018-10-11T13:29:17.737Z,1007.07
2018-10-11T13:30:18.567Z,1007.10
2018-10-11T13:31:19.069Z,1007.12
2018-10-11T13:32:19.788Z,1007.09
2018-10-11T13:33:20.450Z,1007.08
2018-10-11T13:34:21.236Z,1007.11
2018-10-11T13:35:22.082Z,1007.13
2018-10-11T13:36:22.697Z,1007.16
2018-10-11T13:37:23.360Z,1007.15
2018-10-11T13:38:24.031Z,1007.12
2018-10-11T13:39:25.795Z,1007.12
2018-10-11T13:40:26.464Z,1007.12
2018-10-11T13:41:27.327Z,1007.12
2018-10-11T13:42:27.890Z,1007.12
2018-10-11T13:43:28.686Z,1007.11
2018-10-11T13:44:29.351Z,1007.13
2018-10-11T13:45:30.136Z,1007.13
2018-10-11T13:46:30.807Z,1007.11
2018-10-11T13:47:36.457Z,1007.09
2018-10-11T13:48:33.266Z,1007.09
2018-10-11T13:49:34.033Z,1007.07
2018-10-11T13:50:34.723Z,1007.10
2018-10-11T13:51:35.444Z,1007.06
2018-10-11T13:52:36.098Z,1007.06
2018-10-11T13:55:15.713Z,1007.06
2018-10-11T13:56:17.784Z,1007.07
2018-10-11T13:57:24.079Z,1007.07
2018-10-11T13:58:30.554Z,1007.04
2018-10-11T13:59:31.059Z,1007.09
2018-10-11T14:00:32.234Z,1007.10
2018-10-11T14:01:32.953Z,1007.06
2018-10-11T14:02:35.767Z,1007.06
2018-10-11T14:03:36.281Z,1007.10
2018-10-11T14:04:37.531Z,1007.04
2018-10-11T14:05:38.447Z,1007.08
2018-10-11T14:06:39.429Z,1007.08
2018-10-11T14:07:40.127Z,1007.05
2018-10-11T14:08:47.666Z,1007.05
2018-10-11T14:09:48.311Z,1007.02
2018-10-11T14:10:49.098Z,1007.02
2018-10-11T14:11:49.664Z,1007.04
2018-10-11T14:12:55.222Z,1007.03
2018-10-11T14:13:55.863Z,1007.00
2018-10-11T14:14:56.597Z,1007.00
2018-10-11T14:15:57.276Z,1006.97
2018-10-11T14:17:08.684Z,1007.02
2018-10-11T14:18:11.912Z,1007.01
2018-10-11T14:19:20.677Z,1007.02
2018-10-11T14:20:21.349Z,1007.01
2018-10-11T14:21:22.123Z,1006.98
2018-10-11T14:22:22.826Z,1006.98
2018-10-11T14:23:29.257Z,1006.97
2018-10-11T14:24:29.869Z,1006.94
2018-10-11T14:25:30.655Z,1006.92
2018-10-11T14:26:31.316Z,1006.92
2018-10-11T14:27:32.614Z,1006.91
2018-10-11T14:28:34.241Z,1006.90
2018-10-11T14:29:34.890Z,1006.84
2018-10-11T14:30:35.579Z,1006.83
2018-10-11T14:31:36.246Z,1006.90
2018-10-11T14:44:43.035Z,1006.88
2018-10-11T14:45:56.362Z,1006.91
2018-10-11T14:46:57.454Z,1006.90
2018-10-11T14:58:53.941Z,1006.87
2018-10-11T15:02:49.722Z,1006.85
2018-10-11T15:03:50.478Z,1006.87
2018-10-11T15:06:45.504Z,1006.87
2018-10-11T15:07:45.579Z,1006.88
2018-10-11T15:10:39.058Z,1006.91
2018-10-11T15:11:39.370Z,1006.88
2018-10-11T15:14:36.222Z,1006.86
2018-10-11T15:18:30.559Z,1006.85
2018-10-11T15:19:29.573Z,1006.85
2018-10-11T15:22:23.424Z,1006.84
2018-10-11T15:23:24.596Z,1006.83
2018-10-11T15:26:19.149Z,1006.83
2018-10-11T15:27:20.233Z,1006.81
2018-10-11T15:30:15.071Z,1006.82
2018-10-11T15:31:14.499Z,1006.80
2018-10-11T15:35:10.618Z,1006.79
2018-10-11T15:38:05.191Z,1006.83
2018-10-11T15:39:03.674Z,1006.76
2018-10-11T15:41:59.873Z,1006.76
2018-10-11T15:43:00.631Z,1006.79
2018-10-11T15:45:54.660Z,1006.77
2018-10-11T15:46:56.423Z,1006.76
2018-10-11T15:49:49.939Z,1006.81
2018-10-11T15:50:51.262Z,1006.80
2018-10-11T15:51:52.273Z,1006.81
2018-10-11T15:52:51.378Z,1006.81
2018-10-11T15:53:51.203Z,1006.80
2018-10-11T15:54:53.657Z,1006.82
2018-10-11T15:55:52.942Z,1006.77
2018-10-11T15:56:53.611Z,1006.76
2018-10-11T15:57:54.281Z,1006.79
2018-10-11T15:58:54.958Z,1006.80
2018-10-11T15:59:55.642Z,1006.81
2018-10-11T16:00:56.301Z,1006.78
2018-10-11T16:01:56.967Z,1006.75
2018-10-11T16:02:57.641Z,1006.77
2018-10-11T16:03:58.324Z,1006.76
2018-10-11T16:04:58.998Z,1006.77
2018-10-11T16:05:59.688Z,1006.76
2018-10-11T16:07:00.431Z,1006.81
2018-10-11T16:08:00.997Z,1006.79
2018-10-11T16:09:01.702Z,1006.79
2018-10-11T16:10:02.347Z,1006.77
2018-10-11T16:11:03.013Z,1006.74
2018-10-11T16:12:03.815Z,1006.75
2018-10-11T16:13:04.358Z,1006.74
2018-10-11T16:14:05.088Z,1006.73
2018-10-11T16:15:05.711Z,1006.75
2018-10-11T16:16:06.378Z,1006.77
2018-10-11T16:17:07.091Z,1006.75
2018-10-11T16:18:07.725Z,1006.75
2018-10-11T16:19:08.399Z,1006.71
2018-10-11T16:20:09.180Z,1006.73
2018-10-11T16:21:09.738Z,1006.73
2018-10-11T16:22:10.412Z,1006.73
2018-10-11T16:23:11.185Z,1006.74
2018-10-11T16:24:11.746Z,1006.72
2018-10-11T16:25:12.506Z,1006.73
2018-10-11T16:26:13.075Z,1006.71
2018-10-11T16:27:13.788Z,1006.67
2018-10-11T16:28:14.418Z,1006.71
2018-10-11T16:29:15.096Z,1006.70
2018-10-11T16:30:15.799Z,1006.73
2018-10-11T16:31:16.482Z,1006.72
2018-10-11T16:32:17.148Z,1006.77
2018-10-11T16:33:17.801Z,1006.76
2018-10-11T16:34:18.449Z,1006.75
2018-10-11T16:35:19.082Z,1006.79
2018-10-11T16:36:19.770Z,1006.78
2018-10-11T16:37:20.436Z,1006.82
2018-10-11T16:38:21.134Z,1006.81
2018-10-11T16:39:21.779Z,1006.83
2018-10-11T16:40:22.535Z,1006.84
2018-10-11T16:41:23.115Z,1006.85
2018-10-11T16:42:23.781Z,1006.85
2018-10-11T16:43:24.465Z,1006.85
2018-10-11T16:44:25.126Z,1006.87
2018-10-11T16:45:25.803Z,1006.87
2018-10-11T16:46:26.469Z,1006.87
2018-10-11T16:47:27.130Z,1006.93
2018-10-11T16:48:27.874Z,1006.93
2018-10-11T16:49:28.620Z,1006.92
2018-10-11T16:50:29.126Z,1006.89
2018-10-11T16:51:29.819Z,1006.91
2018-10-11T16:52:33.509Z,1006.93
2018-10-11T16:53:34.116Z,1006.90
2018-10-11T16:54:34.901Z,1006.94
2018-10-11T16:55:35.510Z,1006.93
2018-10-11T16:56:36.136Z,1006.95
2018-10-11T16:57:36.915Z,1006.96
2018-10-11T16:58:37.463Z,1006.98
2018-10-11T16:59:38.189Z,1006.98
2018-10-11T17:00:38.812Z,1007.02
2018-10-11T17:01:39.541Z,1007.02
2018-10-11T17:02:40.149Z,1007.00
2018-10-11T17:03:40.831Z,1007.01
2018-10-11T17:04:41.510Z,1007.03
2018-10-11T17:05:42.186Z,1007.02
2018-10-11T17:06:42.853Z,1007.03
2018-10-11T17:07:43.550Z,1007.04
2018-10-11T17:08:44.196Z,1007.04
2018-10-11T17:09:44.976Z,1007.10
2018-10-11T17:10:45.526Z,1007.14
2018-10-11T17:11:46.235Z,1007.16
2018-10-11T17:12:46.877Z,1007.18
2018-10-11T17:13:47.544Z,1007.19
2018-10-11T17:14:48.238Z,1007.18
2018-10-11T17:15:48.916Z,1007.23
2018-10-11T17:16:49.583Z,1007.23
2018-10-11T17:17:50.256Z,1007.22
2018-10-11T17:18:51.024Z,1007.22
2018-10-11T17:19:51.655Z,1007.14
2018-10-11T17:20:52.387Z,1007.18
2018-10-11T17:21:53.023Z,1007.16
2018-10-11T17:22:53.675Z,1007.17
2018-10-11T17:23:54.402Z,1007.17
2018-10-11T17:24:55.021Z,1007.11
2018-10-11T17:25:55.731Z,1007.20
2018-10-11T17:26:56.361Z,1007.16
2018-10-11T17:27:57.033Z,1007.20
2018-10-11T17:28:57.701Z,1007.18
2018-10-11T17:29:58.389Z,1007.20
2018-10-11T17:30:59.143Z,1007.15
2018-10-11T17:31:59.712Z,1007.21
2018-10-11T17:33:00.426Z,1007.19
2018-10-11T17:34:01.153Z,1007.23
2018-10-11T17:35:01.821Z,1007.23
2018-10-11T17:36:02.440Z,1007.23
2018-10-11T17:37:03.218Z,1007.28
2018-10-11T17:38:03.802Z,1007.25
2018-10-11T17:39:04.459Z,1007.27
2018-10-11T17:40:05.132Z,1007.29
2018-10-11T17:41:05.785Z,1007.29
2018-10-11T17:42:06.538Z,1007.33
2018-10-11T17:43:07.126Z,1007.36
2018-10-11T17:44:07.828Z,1007.35
2018-10-11T17:45:08.474Z,1007.34
2018-10-11T17:46:09.159Z,1007.36
2018-10-11T17:47:09.803Z,1007.36
2018-10-11T17:48:10.464Z,1007.34
2018-10-11T17:49:11.131Z,1007.35
2018-10-11T17:50:11.830Z,1007.36
2018-10-11T17:51:12.487Z,1007.32
2018-10-11T17:52:13.161Z,1007.39
2018-10-11T17:53:13.794Z,1007.38
2018-10-11T17:54:14.489Z,1007.35
2018-10-11T17:55:15.191Z,1007.40
2018-10-11T17:56:15.830Z,1007.41
2018-10-11T17:57:16.491Z,1007.37
2018-10-11T17:58:17.172Z,1007.43
2018-10-11T17:59:17.864Z,1007.38
2018-10-11T18:00:18.518Z,1007.40
2018-10-11T18:01:19.194Z,1007.39
2018-10-11T18:02:19.864Z,1007.36
2018-10-11T18:03:20.616Z,1007.38
2018-10-11T18:04:21.289Z,1007.37
2018-10-11T18:05:21.871Z,1007.40
2018-10-11T18:06:22.532Z,1007.37
2018-10-11T18:07:23.252Z,1007.40
2018-10-11T18:08:23.949Z,1007.43
2018-10-11T18:09:24.635Z,1007.41
2018-10-11T18:10:25.236Z,1007.39
2018-10-11T18:11:25.932Z,1007.39
2018-10-11T18:12:26.584Z,1007.38
2018-10-11T18:13:27.260Z,1007.46
2018-10-11T18:14:27.934Z,1007.41
2018-10-11T18:15:28.669Z,1007.47
2018-10-11T18:16:29.266Z,1007.45
2018-10-11T18:17:31.507Z,1007.50
2018-10-11T18:18:32.150Z,1007.52
2018-10-11T18:19:32.923Z,1007.52
2018-10-11T18:20:33.495Z,1007.53
2018-10-11T18:21:34.201Z,1007.57
2018-10-11T18:22:34.839Z,1007.55
2018-10-11T18:23:35.486Z,1007.56
2018-10-11T18:24:36.203Z,1007.59
2018-10-11T18:25:36.822Z,1007.65
2018-10-11T18:26:37.546Z,1007.62
2018-10-11T18:27:38.185Z,1007.62
2018-10-11T18:28:38.885Z,1007.58
2018-10-11T18:29:39.503Z,1007.59
2018-10-11T18:30:40.181Z,1007.62
2018-10-11T18:31:40.854Z,1007.64
2018-10-11T18:32:41.572Z,1007.65
2018-10-11T18:33:42.191Z,1007.68
2018-10-11T18:34:44.478Z,1007.71
2018-10-11T18:35:45.378Z,1007.71
2018-10-11T18:36:45.812Z,1007.74
2018-10-11T18:37:46.513Z,1007.70
2018-10-11T18:38:47.159Z,1007.69
2018-10-11T18:39:47.892Z,1007.66
2018-10-11T18:40:48.497Z,1007.67
2018-10-11T18:41:49.176Z,1007.71
2018-10-11T18:42:49.844Z,1007.69
2018-10-11T18:43:50.531Z,1007.70
2018-10-11T18:44:51.271Z,1007.69
2018-10-11T18:45:51.881Z,1007.71
2018-10-11T18:46:52.543Z,1007.70
2018-10-11T18:47:53.218Z,1007.73
2018-10-11T18:48:53.948Z,1007.74
2018-10-11T18:49:54.580Z,1007.75
2018-10-11T18:50:55.374Z,1007.74
2018-10-11T18:51:55.909Z,1007.76
2018-10-11T18:52:56.574Z,1007.81
2018-10-11T18:53:57.249Z,1007.82
2018-10-11T18:54:59.619Z,1007.85
2018-10-11T18:56:00.161Z,1007.81
2018-10-11T18:57:00.838Z,1007.84
2018-10-11T18:58:01.600Z,1007.87
2018-10-11T18:59:02.165Z,1007.86
2018-10-11T19:00:02.885Z,1007.84
2018-10-11T19:01:03.534Z,1007.89
2018-10-11T19:02:04.152Z,1007.86
2018-10-11T19:03:04.831Z,1007.87
2018-10-11T19:04:05.516Z,1007.91
2018-10-11T19:05:06.220Z,1007.92
2018-10-11T19:06:06.891Z,1007.92
2018-10-11T19:07:07.597Z,1007.93
2018-10-11T19:08:08.206Z,1007.91
2018-10-11T19:09:08.874Z,1007.96
2018-10-11T19:10:09.560Z,1007.93
2018-10-11T19:11:10.221Z,1007.93
2018-10-11T19:12:10.868Z,1007.93
2018-10-11T19:13:11.532Z,1007.93
2018-10-11T19:14:12.252Z,1008.01
2018-10-11T19:15:12.877Z,1007.98
2018-10-11T19:16:13.606Z,1007.99
2018-10-11T19:17:14.216Z,1008.03
2018-10-11T19:18:14.876Z,1007.98
2018-10-11T19:19:15.579Z,1008.03
2018-10-11T19:20:16.229Z,1008.00
2018-10-11T19:21:16.885Z,1008.01
2018-10-11T19:22:17.605Z,1007.98
2018-10-11T19:23:18.312Z,1007.97
2018-10-11T19:24:18.942Z,1007.95
2018-10-11T19:25:19.603Z,1007.94
2018-10-11T19:26:20.322Z,1007.99
2018-10-11T19:27:20.929Z,1007.95
2018-10-11T19:28:21.605Z,1008.00
2018-10-11T19:29:22.252Z,1007.97
2018-10-11T19:30:22.926Z,1007.97
2018-10-11T19:31:23.601Z,1007.99
2018-10-11T19:32:24.282Z,1007.98
2018-10-11T19:33:24.936Z,1007.99
2018-10-11T19:34:25.593Z,1007.96
2018-10-11T19:35:26.265Z,1007.96
2018-10-11T19:36:26.929Z,1007.92
2018-10-11T19:37:27.674Z,1007.96
2018-10-11T19:38:28.301Z,1007.96
2018-10-11T19:39:29.012Z,1007.91
2018-10-11T19:41:30.306Z,1007.91
2018-10-11T19:42:30.968Z,1007.96
2018-10-11T19:43:31.649Z,1007.96
2018-10-11T19:44:32.314Z,1007.98
2018-10-11T19:45:32.971Z,1007.99
2018-10-11T19:46:33.628Z,1008.04
2018-10-11T19:47:34.324Z,1008.03
2018-10-11T19:48:35.231Z,1008.08
2018-10-11T19:49:35.732Z,1008.08
2018-10-11T19:50:36.378Z,1008.12
2018-10-11T19:51:37.093Z,1008.13
2018-10-11T19:52:37.722Z,1008.14
2018-10-11T19:53:38.381Z,1008.14
2018-10-11T19:54:39.235Z,1008.16
2018-10-11T19:55:39.787Z,1008.15
2018-10-11T19:56:40.550Z,1008.14
2018-10-11T19:57:41.161Z,1008.15
2018-10-11T19:58:41.827Z,1008.18
2018-10-11T19:59:42.568Z,1008.14
2018-10-11T20:00:43.180Z,1008.14
2018-10-11T20:01:43.787Z,1008.17
2018-10-11T20:02:44.465Z,1008.20
2018-10-11T20:03:45.124Z,1008.15
2018-10-11T20:04:45.920Z,1008.15
2018-10-11T20:05:46.487Z,1008.13
2018-10-11T20:06:47.130Z,1008.11
2018-10-11T20:07:47.844Z,1008.11
2018-10-11T20:08:48.412Z,1008.13
2018-10-11T20:09:49.088Z,1008.15
2018-10-11T20:10:49.759Z,1008.14
2018-10-11T20:11:50.516Z,1008.14
2018-10-11T20:12:51.115Z,1008.09
2018-10-11T20:13:51.724Z,1008.11
2018-10-11T20:14:52.379Z,1008.12
2018-10-11T20:15:53.140Z,1008.13
2018-10-11T20:16:53.798Z,1008.11
2018-10-11T20:17:54.479Z,1008.15
2018-10-11T20:18:55.098Z,1008.15
2018-10-11T20:19:55.820Z,1008.14
2018-10-11T20:20:56.431Z,1008.13
2018-10-11T20:21:57.099Z,1008.18
2018-10-11T20:22:57.760Z,1008.17
2018-10-11T20:23:58.427Z,1008.18
2018-10-11T20:24:59.085Z,1008.19
2018-10-11T20:25:59.794Z,1008.22
2018-10-11T20:27:00.531Z,1008.23
2018-10-11T20:28:01.135Z,1008.21
2018-10-11T20:29:02.541Z,1008.24
2018-10-11T20:30:03.228Z,1008.28
2018-10-11T20:31:03.844Z,1008.28
2018-10-11T20:32:04.527Z,1008.31
2018-10-11T20:33:05.178Z,1008.31
2018-10-11T20:34:05.852Z,1008.30
2018-10-11T20:35:06.527Z,1008.31
2018-10-11T20:36:07.284Z,1008.34
2018-10-11T20:37:08.017Z,1008.34
2018-10-11T20:38:08.531Z,1008.32
2018-10-11T20:39:09.177Z,1008.28
2018-10-11T20:40:09.852Z,1008.35
2018-10-11T20:41:10.573Z,1008.30
2018-10-11T20:42:11.191Z,1008.32
2018-10-11T20:43:11.864Z,1008.35
2018-10-11T20:44:12.546Z,1008.35
2018-10-11T20:45:13.245Z,1008.36
2018-10-11T20:46:13.884Z,1008.33
2018-10-11T20:47:14.556Z,1008.32
2018-10-11T20:48:15.341Z,1008.33
2018-10-11T20:49:15.908Z,1008.36
2018-10-11T20:50:16.569Z,1008.36
2018-10-11T20:51:17.243Z,1008.38
2018-10-11T20:52:18.047Z,1008.36
2018-10-11T20:53:18.590Z,1008.39
2018-10-11T20:54:19.264Z,1008.39
2018-10-11T20:55:19.962Z,1008.38
2018-10-11T20:56:20.678Z,1008.41
2018-10-11T20:57:21.339Z,1008.38
2018-10-11T20:58:21.947Z,1008.36
2018-10-11T20:59:22.616Z,1008.38
2018-10-11T21:00:23.290Z,1008.35
2018-10-11T21:01:23.947Z,1008.37
2018-10-11T21:02:24.644Z,1008.37
2018-10-11T21:03:25.299Z,1008.39
2018-10-11T21:04:26.094Z,1008.35
2018-10-11T21:05:26.707Z,1008.33
2018-10-11T21:06:27.336Z,1008.33
2018-10-11T21:07:27.987Z,1008.36
2018-10-11T21:08:28.703Z,1008.37
2018-10-11T21:09:29.386Z,1008.39
2018-10-11T21:10:30.024Z,1008.36
2018-10-11T21:11:30.655Z,1008.34
2018-10-11T21:12:31.325Z,1008.39
2018-10-11T21:13:31.985Z,1008.38
2018-10-11T21:14:32.648Z,1008.41
2018-10-11T21:15:33.422Z,1008.40
2018-10-11T21:16:34.000Z,1008.39
2018-10-11T21:17:34.693Z,1008.43
2018-10-11T21:18:35.585Z,1008.42
2018-10-11T21:19:36.250Z,1008.45
2018-10-11T21:20:37.980Z,1008.46
2018-10-11T21:21:38.415Z,1008.46
2018-10-11T21:22:38.856Z,1008.37
2018-10-11T21:23:39.545Z,1008.43
2018-10-11T21:24:40.186Z,1008.40
2018-10-11T21:25:40.862Z,1008.42
2018-10-11T21:26:41.605Z,1008.36
2018-10-11T21:27:42.266Z,1008.37
2018-10-11T21:28:42.910Z,1008.37
2018-10-11T21:29:43.641Z,1008.36
2018-10-11T21:30:44.206Z,1008.36
2018-10-11T21:31:46.537Z,1008.36
2018-10-11T21:32:47.187Z,1008.35
2018-10-11T21:33:47.878Z,1008.42
2018-10-11T21:34:48.633Z,1008.37
2018-10-11T21:35:49.200Z,1008.40
2018-10-11T21:36:49.887Z,1008.40
2018-10-11T21:37:50.544Z,1008.38
2018-10-11T21:38:51.227Z,1008.39
2018-10-11T21:39:51.902Z,1008.42
2018-10-11T21:40:52.553Z,1008.37
2018-10-11T21:41:53.226Z,1008.36
2018-10-11T21:42:53.946Z,1008.37
2018-10-11T21:43:54.664Z,1008.37
2018-10-11T21:44:55.273Z,1008.36
2018-10-11T21:45:55.961Z,1008.34
2018-10-11T21:46:56.602Z,1008.34
2018-10-11T21:51:03.001Z,1008.33
2018-10-11T21:54:57.840Z,1008.30
2018-10-11T21:56:00.298Z,1008.37
2018-10-11T21:57:00.329Z,1008.42
2018-10-11T21:57:59.236Z,1008.43
2018-10-11T21:58:58.883Z,1008.41
2018-10-11T22:00:01.302Z,1008.42
2018-10-11T22:00:58.700Z,1008.46
2018-10-11T22:01:59.299Z,1008.43
2018-10-11T22:02:59.865Z,1008.44
2018-10-11T22:04:00.521Z,1008.41
2018-10-11T22:05:01.219Z,1008.41
2018-10-11T22:06:01.831Z,1008.36
2018-10-11T22:07:02.500Z,1008.32
2018-10-11T22:08:03.221Z,1008.40
2018-10-11T22:09:03.815Z,1008.33
2018-10-11T22:10:04.521Z,1008.33
2018-10-11T22:11:05.154Z,1008.32
2018-10-11T22:12:05.827Z,1008.33
2018-10-11T22:13:06.499Z,1008.32
2018-10-11T22:14:07.158Z,1008.30
2018-10-11T22:15:07.994Z,1008.31
2018-10-11T22:16:08.494Z,1008.30
2018-10-11T22:17:09.169Z,1008.35
2018-10-11T22:18:09.835Z,1008.34
2018-10-11T22:19:10.552Z,1008.35
2018-10-11T22:20:11.259Z,1008.32
2018-10-11T22:21:11.889Z,1008.33
2018-10-11T22:22:12.516Z,1008.32
2018-10-11T22:23:13.191Z,1008.37
2018-10-11T22:24:13.859Z,1008.31
2018-10-11T22:25:14.558Z,1008.28
2018-10-11T22:26:15.182Z,1008.27
2018-10-11T22:27:15.915Z,1008.23
2018-10-11T22:28:16.530Z,1008.25
2018-10-11T22:29:17.189Z,1008.23
2018-10-11T22:30:17.932Z,1008.24
2018-10-11T22:31:18.520Z,1008.25
2018-10-11T22:32:19.186Z,1008.24
2018-10-11T22:33:19.949Z,1008.27
2018-10-11T22:34:20.526Z,1008.26
2018-10-11T22:35:21.206Z,1008.30
2018-10-11T22:36:21.902Z,1008.32
2018-10-11T22:37:22.554Z,1008.35
2018-10-11T22:38:23.159Z,1008.35
2018-10-11T22:39:23.831Z,1008.37
2018-10-11T22:40:24.561Z,1008.35
2018-10-11T22:41:25.163Z,1008.39
2018-10-11T22:42:25.859Z,1008.39
2018-10-11T22:43:26.510Z,1008.36
2018-10-11T22:44:27.187Z,1008.39
2018-10-11T22:45:27.827Z,1008.35
2018-10-11T22:46:28.533Z,1008.35
2018-10-11T22:47:29.167Z,1008.30
2018-10-11T22:48:29.850Z,1008.31
2018-10-11T22:49:30.498Z,1008.29
2018-10-11T22:50:31.191Z,1008.30
2018-10-11T22:51:31.823Z,1008.29
2018-10-11T22:52:32.582Z,1008.28
2018-10-11T22:53:33.215Z,1008.32
2018-10-11T22:54:33.894Z,1008.31
2018-10-11T22:55:34.501Z,1008.33
2018-10-11T22:56:35.144Z,1008.30
2018-10-11T22:57:35.833Z,1008.33
2018-10-11T22:58:36.516Z,1008.38
2018-10-11T22:59:37.175Z,1008.42
2018-10-11T23:00:37.843Z,1008.37
2018-10-11T23:01:38.569Z,1008.39
2018-10-11T23:02:39.116Z,1008.44
2018-10-11T23:03:39.784Z,1008.45
2018-10-11T23:04:40.484Z,1008.44
2018-10-11T23:05:41.153Z,1008.47
2018-10-11T23:06:41.827Z,1008.43
2018-10-11T23:07:42.483Z,1008.49
2018-10-11T23:08:43.262Z,1008.50
2018-10-11T23:09:43.833Z,1008.51
2018-10-11T23:10:44.477Z,1008.53
2018-10-11T23:11:45.177Z,1008.55
2018-10-11T23:12:45.807Z,1008.51
2018-10-11T23:13:46.478Z,1008.51
2018-10-11T23:14:47.302Z,1008.52
2018-10-11T23:15:47.872Z,1008.52
2018-10-11T23:16:48.492Z,1008.51
2018-10-11T23:17:49.219Z,1008.52
2018-10-11T23:18:49.836Z,1008.51
2018-10-11T23:19:50.558Z,1008.49
2018-10-11T23:20:51.173Z,1008.52
2018-10-11T23:21:51.855Z,1008.52
2018-10-11T23:22:52.526Z,1008.60
2018-10-11T23:23:53.153Z,1008.58
2018-10-11T23:24:53.848Z,1008.64
2018-10-11T23:25:54.488Z,1008.65
2018-10-11T23:26:55.145Z,1008.65
2018-10-11T23:27:55.903Z,1008.70
2018-10-11T23:28:56.496Z,1008.73
2018-10-11T23:29:57.255Z,1008.77
2018-10-11T23:30:57.815Z,1008.80
2018-10-11T23:31:58.506Z,1008.82
2018-10-11T23:32:59.174Z,1008.86
2018-10-11T23:33:59.846Z,1008.85
2018-10-11T23:35:00.545Z,1008.87
2018-10-11T23:36:01.189Z,1008.86
2018-10-11T23:37:01.967Z,1008.90
2018-10-11T23:38:05.495Z,1008.89
2018-10-11T23:39:06.161Z,1008.94
2018-10-11T23:40:06.795Z,1008.93
2018-10-11T23:41:07.469Z,1008.94
2018-10-11T23:42:08.129Z,1008.99
2018-10-11T23:43:08.812Z,1008.97
2018-10-11T23:44:09.469Z,1009.00
2018-10-11T23:45:10.125Z,1009.01
2018-10-11T23:46:10.787Z,1009.01
2018-10-11T23:47:11.458Z,1009.01
2018-10-11T23:48:12.148Z,1009.00
2018-10-11T23:49:12.782Z,1009.01
2018-10-11T23:50:13.494Z,1009.02
2018-10-11T23:51:14.120Z,1009.03
2018-10-11T23:52:14.777Z,1009.05
2018-10-11T23:53:15.498Z,1009.05
2018-10-11T23:54:16.104Z,1009.02
2018-10-11T23:55:16.809Z,1009.04
2018-10-11T23:56:17.426Z,1009.06
2018-10-11T23:57:18.092Z,1009.02
2018-10-11T23:58:18.751Z,1009.07
2018-10-11T23:59:19.425Z,1009.09
